Time;durP1;ratioP1;P1;durP2;ratioP2;P2;SDS_P1;SDS_P2;PMS_P1;PMS_P2;Temp;Humidity;BMP_temperature;BMP_pressure;BME280_temperature;BME280_humidity;BME280_pressure;Samples;Min_cycle;Max_cycle;Signal;HPM_P1;HPM_P2
2021/01/30 00:00:20;;;;;;;;;28.00;22.20;;;;;3.56;70.89;99253.25;454308;119;383834;-81
2021/01/30 00:01:23;;;;;;;;;27.80;23.80;;;;;3.56;70.89;99253.25;454373;119;383945;-80
2021/01/30 00:02:27;;;;;;;;;34.30;27.40;;;;;3.55;71.03;99241.88;455022;119;383586;-83
2021/01/30 00:03:31;;;;;;;;;30.20;25.00;;;;;3.56;71.06;99238.31;454623;120;388626;-82
2021/01/30 00:04:36;;;;;;;;;34.70;28.10;;;;;3.53;71.01;99246.41;454448;120;384088;-83
2021/01/30 00:05:40;;;;;;;;;28.30;26.30;;;;;3.54;71.10;99252.52;454509;119;383140;-82
2021/01/30 00:06:49;;;;;;;;;32.90;24.50;;;;;3.55;70.93;99246.30;453705;120;382783;-81
2021/01/30 00:07:53;;;;;;;;;29.60;24.40;;;;;3.57;70.87;99254.94;454083;119;383088;-80
2021/01/30 00:08:58;;;;;;;;;31.00;25.10;;;;;3.58;70.95;99251.34;454641;119;384175;-80
2021/01/30 00:10:02;;;;;;;;;28.20;25.70;;;;;3.58;70.95;99251.34;454355;120;385235;-80
2021/01/30 00:11:06;;;;;;;;;31.10;26.00;;;;;3.59;70.88;99253.03;454832;120;384278;-80
2021/01/30 00:12:10;;;;;;;;;26.50;23.20;;;;;3.59;70.88;99253.03;454309;120;383616;-80
2021/01/30 00:13:15;;;;;;;;;29.40;25.30;;;;;3.60;70.87;99254.72;454104;120;383001;-81
2021/01/30 00:14:21;;;;;;;;;27.90;24.90;;;;;3.60;70.87;99254.72;454430;120;383574;-83
2021/01/30 00:15:27;;;;;;;;;32.70;27.20;;;;;3.55;70.69;99262.06;454298;120;385915;-82
2021/01/30 00:16:32;;;;;;;;;30.50;25.60;;;;;3.55;70.92;99262.91;454226;120;382409;-80
2021/01/30 00:17:36;;;;;;;;;21.60;18.60;;;;;3.52;71.14;99264.91;454416;120;382185;-80
2021/01/30 00:18:40;;;;;;;;;30.60;25.50;;;;;3.44;71.14;99277.73;454262;120;383048;-80
2021/01/30 00:19:45;;;;;;;;;28.90;23.70;;;;;3.44;71.14;99277.73;454564;120;390674;-79
2021/01/30 00:20:50;;;;;;;;;31.30;24.80;;;;;3.50;70.90;99270.28;453850;119;383119;-79
2021/01/30 00:21:56;;;;;;;;;10.80;9.40;;;;;3.50;70.90;99270.28;455479;119;381281;-78
2021/01/30 00:23:00;;;;;;;;;26.80;22.10;;;;;3.51;71.30;99285.09;454003;120;383700;-78
2021/01/30 00:24:05;;;;;;;;;29.80;25.60;;;;;3.44;71.21;99281.21;457489;119;384958;-80
2021/01/30 00:25:11;;;;;;;;;31.20;26.20;;;;;3.44;71.21;99281.21;457571;119;383961;-80
2021/01/30 00:26:17;;;;;;;;;31.50;26.50;;;;;3.44;71.29;99277.73;459716;118;390950;-81
2021/01/30 00:27:22;;;;;;;;;23.30;23.30;;;;;3.46;71.38;99288.98;458602;119;382338;-81
2021/01/30 00:28:27;;;;;;;;;36.40;30.80;;;;;3.46;71.34;99283.72;458821;119;385671;-80
2021/01/30 00:29:32;;;;;;;;;29.20;25.10;;;;;3.44;71.43;99277.73;459737;119;384532;-80
2021/01/30 00:30:36;;;;;;;;;39.70;31.30;;;;;3.45;71.58;99287.28;459943;119;384442;-80
2021/01/30 00:31:40;;;;;;;;;26.90;24.80;;;;;3.44;71.63;99280.36;459654;119;381841;-79
2021/01/30 00:32:44;;;;;;;;;37.80;30.20;;;;;3.43;71.48;99289.19;459809;119;384871;-78
2021/01/30 00:33:48;;;;;;;;;25.80;22.50;;;;;3.43;71.53;99279.52;460238;119;384971;-79
2021/01/30 00:34:52;;;;;;;;;34.20;32.70;;;;;3.43;71.31;99274.27;460148;119;392123;-79
2021/01/30 00:35:56;;;;;;;;;42.20;32.10;;;;;3.43;71.31;99274.27;460147;119;387130;-80
2021/01/30 00:37:04;;;;;;;;;36.70;30.30;;;;;3.46;71.49;99287.20;459546;119;394196;-79
2021/01/30 00:38:08;;;;;;;;;29.50;27.30;;;;;3.52;71.13;99288.56;458940;119;385474;-81
2021/01/30 00:39:11;;;;;;;;;35.00;31.00;;;;;3.52;71.13;99288.56;452883;120;393286;-80
2021/01/30 00:40:18;;;;;;;;;31.50;25.00;;;;;3.51;70.90;99285.09;452978;120;383844;-80
2021/01/30 00:41:22;;;;;;;;;31.90;27.40;;;;;3.45;71.07;99292.54;459249;119;389951;-80
2021/01/30 00:42:26;;;;;;;;;40.10;32.30;;;;;3.44;71.42;99288.25;460189;119;385734;-81
2021/01/30 00:43:30;;;;;;;;;27.30;23.20;;;;;3.44;71.42;99288.25;458646;119;382726;-80
2021/01/30 00:44:34;;;;;;;;;37.10;29.80;;;;;3.43;71.34;99294.44;460181;119;386296;-81
2021/01/30 00:45:38;;;;;;;;;30.30;26.50;;;;;3.43;71.34;99294.44;458918;119;383226;-82
2021/01/30 00:46:43;;;;;;;;;30.10;29.00;;;;;3.40;71.41;99289.39;458490;119;388998;-81
2021/01/30 00:47:47;;;;;;;;;30.20;27.40;;;;;3.38;71.46;99286.88;453143;120;384694;-82
2021/01/30 00:48:51;;;;;;;;;29.50;27.40;;;;;3.38;71.46;99286.88;453207;120;384206;-81
2021/01/30 00:49:55;;;;;;;;;31.70;27.90;;;;;3.38;71.50;99286.88;457419;119;387454;-81
2021/01/30 00:50:59;;;;;;;;;36.20;31.90;;;;;3.39;71.49;99285.92;459849;119;385761;-81
2021/01/30 00:52:04;;;;;;;;;24.30;19.50;;;;;3.38;71.80;99293.92;461065;118;381074;-81
2021/01/30 00:53:08;;;;;;;;;38.40;30.50;;;;;3.40;71.74;99292.02;460744;118;383747;-77
2021/01/30 00:54:14;;;;;;;;;32.30;30.20;;;;;3.40;71.74;99292.02;452983;120;385896;-80
2021/01/30 00:55:21;;;;;;;;;30.00;28.00;;;;;3.43;71.13;99297.92;459087;119;383922;-80
2021/01/30 00:56:25;;;;;;;;;35.60;29.60;;;;;3.44;71.02;99296.14;459659;119;385554;-79
2021/01/30 00:57:29;;;;;;;;;38.70;28.60;;;;;3.42;70.99;99284.86;459511;119;385680;-78
2021/01/30 00:58:33;;;;;;;;;32.50;28.50;;;;;3.39;70.96;99287.70;459666;119;385811;-79
2021/01/30 00:59:38;;;;;;;;;35.80;30.40;;;;;3.37;71.24;99294.86;459920;119;386095;-78
2021/01/30 01:00:42;;;;;;;;;36.00;28.80;;;;;3.40;71.10;99289.39;459044;119;387125;-78
2021/01/30 01:01:47;;;;;;;;;34.50;28.90;;;;;3.43;71.19;99286.56;457325;119;384773;-78
2021/01/30 01:02:53;;;;;;;;;38.00;30.20;;;;;3.46;70.92;99291.61;458022;118;384741;-78
2021/01/30 01:03:58;;;;;;;;;34.30;27.40;;;;;3.48;71.00;99298.44;459372;119;390500;-79
2021/01/30 01:05:01;;;;;;;;;33.10;29.50;;;;;3.48;71.00;99298.44;460023;119;385906;-78
2021/01/30 01:06:06;;;;;;;;;33.10;27.30;;;;;3.41;70.92;99291.94;459832;119;391486;-79
2021/01/30 01:07:10;;;;;;;;;24.90;20.40;;;;;3.35;71.21;99292.31;458397;119;382027;-80
2021/01/30 01:08:14;;;;;;;;;38.80;34.80;;;;;3.35;71.21;99292.31;458465;118;383115;-78
2021/01/30 01:09:18;;;;;;;;;38.90;32.90;;;;;3.37;71.27;99290.45;456321;119;385322;-78
2021/01/30 01:10:23;;;;;;;;;33.30;24.50;;;;;3.34;71.34;99287.18;457235;119;391589;-77
2021/01/30 01:11:27;;;;;;;;;31.30;28.90;;;;;3.32;71.44;99292.52;459794;119;385318;-80
2021/01/30 01:12:31;;;;;;;;;33.30;28.40;;;;;3.37;71.14;99294.86;460108;119;384796;-79
2021/01/30 01:13:35;;;;;;;;;33.10;31.40;;;;;3.35;71.22;99296.75;459581;119;383940;-79
2021/01/30 01:14:38;;;;;;;;;35.00;29.30;;;;;3.35;71.22;99296.75;460224;119;384444;-78
2021/01/30 01:15:42;;;;;;;;;33.10;29.30;;;;;3.34;71.37;99300.31;459852;119;385937;-80
2021/01/30 01:16:47;;;;;;;;;34.60;31.60;;;;;3.34;71.37;99300.31;459143;119;384878;-78
2021/01/30 01:17:51;;;;;;;;;39.50;29.70;;;;;3.29;71.72;99299.80;458911;119;388333;-78
2021/01/30 01:18:55;;;;;;;;;43.60;36.20;;;;;3.29;71.72;99299.80;459723;119;386882;-79
2021/01/30 01:19:59;;;;;;;;;33.90;26.90;;;;;3.23;71.72;99313.31;460005;119;384667;-80
2021/01/30 01:21:03;;;;;;;;;32.30;27.30;;;;;3.26;72.15;99316.58;459050;119;383500;-79
2021/01/30 01:22:10;;;;;;;;;39.20;31.80;;;;;3.31;71.88;99313.66;459939;119;392212;-78
2021/01/30 01:23:14;;;;;;;;;36.10;30.20;;;;;3.31;71.88;99313.66;459669;119;384300;-78
2021/01/30 01:24:18;;;;;;;;;41.90;33.20;;;;;3.31;71.84;99321.55;459928;119;386710;-79
2021/01/30 01:25:22;;;;;;;;;38.30;32.10;;;;;3.33;71.84;99315.23;458860;119;385609;-77
2021/01/30 01:26:26;;;;;;;;;33.30;29.70;;;;;3.33;71.65;99312.61;458809;119;383503;-79
2021/01/30 01:27:30;;;;;;;;;39.80;33.50;;;;;3.33;71.74;99324.91;459723;118;385752;-79
2021/01/30 01:28:34;;;;;;;;;39.70;29.70;;;;;3.33;71.74;99323.13;460639;118;385490;-78
2021/01/30 01:29:38;;;;;;;;;30.50;27.30;;;;;3.34;71.73;99310.83;459095;119;382965;-79
2021/01/30 01:30:43;;;;;;;;;32.10;30.20;;;;;3.34;71.73;99310.83;459751;119;385493;-79
2021/01/30 01:31:51;;;;;;;;;37.10;29.10;;;;;3.35;71.63;99317.78;458301;119;384461;-77
2021/01/30 01:32:55;;;;;;;;;34.80;32.20;;;;;3.38;71.54;99309.69;459625;119;385476;-83
2021/01/30 01:33:58;;;;;;;;;37.60;32.30;;;;;3.41;71.58;99312.11;460042;119;385306;-81
2021/01/30 01:35:02;;;;;;;;;42.90;32.40;;;;;3.41;71.58;99312.11;459788;119;386366;-81
2021/01/30 01:36:07;;;;;;;;;38.20;35.00;;;;;3.44;71.28;99307.50;459595;119;385139;-81
2021/01/30 01:37:11;;;;;;;;;34.40;29.60;;;;;3.39;71.36;99304.31;457294;119;384711;-81
2021/01/30 01:38:15;;;;;;;;;31.50;25.80;;;;;3.40;71.41;99305.16;458742;119;382575;-82
2021/01/30 01:39:19;;;;;;;;;28.60;22.30;;;;;3.40;71.58;99313.05;460191;119;382107;-81
2021/01/30 01:40:26;;;;;;;;;35.60;31.20;;;;;3.37;71.71;99316.73;459731;119;385458;-82
2021/01/30 01:41:30;;;;;;;;;39.30;33.40;;;;;3.33;71.67;99315.23;459751;119;385750;-81
2021/01/30 01:42:34;;;;;;;;;35.00;29.30;;;;;3.35;71.72;99310.71;460227;119;385112;-82
2021/01/30 01:43:40;;;;;;;;;42.10;33.70;;;;;3.38;71.70;99320.20;458715;118;386637;-81
2021/01/30 01:44:44;;;;;;;;;43.30;36.90;;;;;3.31;71.48;99311.88;460236;119;385407;-80
2021/01/30 01:45:51;;;;;;;;;37.10;32.70;;;;;3.34;71.73;99316.93;459900;119;386182;-80
2021/01/30 01:46:56;;;;;;;;;41.80;33.20;;;;;3.34;71.73;99316.93;460006;119;391657;-80
2021/01/30 01:48:02;;;;;;;;;44.30;35.80;;;;;3.35;71.90;99321.22;459920;119;385606;-78
2021/01/30 01:49:12;;;;;;;;;31.20;29.40;;;;;3.35;71.90;99321.22;459643;119;384967;-79
2021/01/30 01:50:26;;;;;;;;;39.40;31.40;;;;;3.36;71.74;99317.66;459353;119;391567;-78
2021/01/30 01:51:35;;;;;;;;;34.00;26.30;;;;;3.36;71.74;99317.66;459957;119;384355;-78
2021/01/30 01:52:39;;;;;;;;;36.90;30.90;;;;;3.38;71.56;99322.83;459950;119;384789;-78
2021/01/30 01:53:43;;;;;;;;;32.90;30.00;;;;;3.35;71.57;99313.34;459822;119;385335;-78
2021/01/30 01:54:48;;;;;;;;;35.90;29.90;;;;;3.33;71.65;99317.02;458675;119;395163;-78
2021/01/30 01:55:53;;;;;;;;;35.60;31.20;;;;;3.33;71.99;99320.49;459965;119;386307;-78
2021/01/30 01:56:58;;;;;;;;;37.80;30.60;;;;;3.32;71.89;99313.55;458791;119;384680;-78
2021/01/30 01:58:02;;;;;;;;;36.30;28.20;;;;;3.32;71.89;99313.55;457297;118;384872;-78
2021/01/30 01:59:08;;;;;;;;;29.00;24.80;;;;;3.32;71.78;99317.98;462354;118;384412;-79
2021/01/30 02:00:14;;;;;;;;;39.00;33.50;;;;;3.31;71.91;99321.55;461897;118;385921;-77
2021/01/30 02:01:18;;;;;;;;;38.80;34.20;;;;;3.31;71.91;99321.55;458164;119;388660;-78
2021/01/30 02:02:22;;;;;;;;;24.80;20.10;;;;;3.29;72.08;99320.81;459707;119;380804;-79
2021/01/30 02:03:27;;;;;;;;;32.20;27.70;;;;;3.31;71.93;99318.91;459662;119;391291;-77
2021/01/30 02:04:31;;;;;;;;;36.10;32.00;;;;;3.31;71.93;99318.91;457846;119;385954;-77
2021/01/30 02:05:36;;;;;;;;;38.50;33.10;;;;;3.31;71.83;99329.43;459860;119;384042;-78
2021/01/30 02:06:42;;;;;;;;;32.60;29.30;;;;;3.26;72.13;99326.24;459160;119;384140;-80
2021/01/30 02:07:46;;;;;;;;;30.40;27.90;;;;;3.26;72.13;99326.24;457719;119;384453;-80
2021/01/30 02:08:50;;;;;;;;;28.50;27.70;;;;;3.29;72.07;99328.70;459396;119;384110;-82
2021/01/30 02:09:55;;;;;;;;;27.90;23.50;;;;;3.26;71.85;99334.12;460339;119;383425;-81
2021/01/30 02:11:01;;;;;;;;;30.90;28.40;;;;;3.26;72.11;99331.50;459924;119;383135;-81
2021/01/30 02:12:06;;;;;;;;;33.70;28.80;;;;;3.23;72.18;99334.33;459564;119;384267;-82
2021/01/30 02:13:12;;;;;;;;;34.40;29.40;;;;;3.20;72.14;99341.48;458287;118;384129;-81
2021/01/30 02:14:16;;;;;;;;;30.80;27.50;;;;;3.20;72.14;99341.48;456166;119;384638;-81
2021/01/30 02:15:20;;;;;;;;;33.60;30.70;;;;;3.17;72.41;99346.09;459189;119;385045;-81
2021/01/30 02:16:33;;;;;;;;;36.20;29.20;;;;;3.13;72.52;99340.19;459323;119;385225;-81
2021/01/30 02:17:41;;;;;;;;;34.80;29.00;;;;;3.14;72.92;99336.63;460045;118;383301;-81
2021/01/30 02:18:49;;;;;;;;;31.70;28.40;;;;;3.19;72.54;99355.55;458206;118;383590;-78
2021/01/30 02:20:39;;;;;;;;;35.30;33.40;;;;;3.24;72.38;99349.16;456069;119;385907;-79
2021/01/30 02:22:33;;;;;;;;;31.80;24.70;;;;;3.24;72.38;99349.16;453406;119;392343;-78
2021/01/30 02:24:22;;;;;;;;;25.30;22.40;;;;;3.19;72.29;99357.36;453419;120;383652;-80
2021/01/30 02:27:46;;;;;;;;;30.20;20.90;;;;;3.26;72.49;99355.14;489484;108;411749;-80
2021/01/30 02:28:56;;;;;;;;;31.50;25.70;;;;;3.08;72.82;99357.20;481467;113;384944;-81
2021/01/30 02:30:17;;;;;;;;;27.50;22.80;;;;;3.10;73.04;99353.52;487738;111;384979;-82
2021/01/30 02:31:43;;;;;;;;;41.10;34.50;;;;;3.05;73.15;99360.87;479558;113;385102;-80
2021/01/30 02:33:06;;;;;;;;;42.20;35.00;;;;;3.00;73.11;99355.05;479864;113;384610;-79
2021/01/30 02:34:34;;;;;;;;;36.70;30.50;;;;;3.02;73.51;99354.97;479888;113;385186;-78
2021/01/30 02:35:57;;;;;;;;;39.00;31.30;;;;;2.98;73.64;99356.95;479630;113;386699;-81
2021/01/30 02:37:03;;;;;;;;;35.80;27.80;;;;;2.98;73.64;99356.95;479617;113;392532;-78
2021/01/30 02:38:07;;;;;;;;;35.10;29.10;;;;;2.96;73.69;99363.25;479706;113;384012;-77
2021/01/30 02:39:14;;;;;;;;;36.00;31.40;;;;;2.99;73.62;99361.27;479807;113;389791;-80
2021/01/30 02:40:20;;;;;;;;;40.40;29.40;;;;;2.98;74.10;99362.20;479675;113;384939;-80
2021/01/30 02:41:25;;;;;;;;;36.50;31.70;;;;;2.99;74.04;99361.27;479781;113;383689;-81
2021/01/30 02:42:30;;;;;;;;;36.50;32.00;;;;;2.99;74.04;99361.27;479956;113;383511;-79
2021/01/30 02:43:37;;;;;;;;;34.60;30.20;;;;;3.03;73.42;99369.80;471592;115;383767;-80
2021/01/30 02:44:42;;;;;;;;;30.30;28.20;;;;;3.03;73.26;99354.85;471603;115;388884;-80
2021/01/30 02:45:47;;;;;;;;;39.30;29.50;;;;;3.03;73.22;99352.23;471879;115;386748;-79
2021/01/30 02:46:56;;;;;;;;;39.90;33.70;;;;;2.97;73.83;99360.50;471074;115;385992;-84
2021/01/30 02:48:02;;;;;;;;;34.30;28.20;;;;;2.99;73.98;99361.27;471607;115;390145;-85
2021/01/30 02:49:09;;;;;;;;;25.40;20.40;;;;;2.99;73.98;99361.27;471880;115;383839;-83
2021/01/30 02:50:16;;;;;;;;;39.30;28.80;;;;;2.97;73.63;99360.50;471213;115;385591;-84
2021/01/30 02:51:21;;;;;;;;;29.20;25.20;;;;;2.96;73.57;99369.34;471649;115;394096;-85
2021/01/30 02:52:26;;;;;;;;;37.40;30.30;;;;;3.00;74.08;99365.56;471744;115;382780;-80
2021/01/30 02:53:32;;;;;;;;;36.70;32.40;;;;;3.03;73.53;99367.98;471591;115;385474;-80
2021/01/30 02:54:36;;;;;;;;;28.90;24.60;;;;;3.03;74.23;99375.87;471609;115;383382;-81
2021/01/30 02:55:43;;;;;;;;;36.20;30.20;;;;;3.05;73.67;99367.91;471774;115;387315;-80
2021/01/30 02:56:47;;;;;;;;;34.30;28.50;;;;;3.05;73.19;99374.01;472154;115;384342;-80
2021/01/30 02:57:51;;;;;;;;;35.20;29.10;;;;;3.08;73.18;99365.08;472168;115;382963;-80
2021/01/30 02:58:57;;;;;;;;;38.90;30.30;;;;;3.13;72.94;99365.61;471740;115;384392;-79
2021/01/30 03:00:01;;;;;;;;;33.40;28.40;;;;;3.13;72.94;99365.61;471095;115;384764;-80
2021/01/30 03:01:06;;;;;;;;;38.60;34.50;;;;;3.09;73.85;99359.74;471822;115;383829;-79
2021/01/30 03:02:09;;;;;;;;;34.60;31.70;;;;;3.12;73.69;99359.54;472064;115;390324;-80
2021/01/30 03:03:14;;;;;;;;;41.60;32.70;;;;;3.17;73.17;99353.97;471789;115;389744;-81
2021/01/30 03:04:19;;;;;;;;;38.20;32.70;;;;;3.17;73.17;99353.97;472067;115;385365;-81
2021/01/30 03:05:23;;;;;;;;;33.60;28.00;;;;;3.24;72.48;99359.67;471823;115;384252;-81
2021/01/30 03:06:32;;;;;;;;;44.60;34.20;;;;;3.24;72.48;99359.67;471501;115;386410;-80
2021/01/30 03:07:56;;;;;;;;;36.60;33.70;;;;;3.26;72.06;99360.40;471623;115;385486;-79
2021/01/30 03:09:03;;;;;;;;;36.20;30.10;;;;;3.26;72.25;99358.63;471581;115;385375;-79
2021/01/30 03:10:11;;;;;;;;;38.40;28.50;;;;;3.26;72.25;99358.63;471835;115;385194;-82
2021/01/30 03:11:16;;;;;;;;;36.60;30.90;;;;;3.28;72.19;99354.13;471589;115;383445;-80
2021/01/30 03:12:26;;;;;;;;;42.30;34.70;;;;;3.28;71.95;99358.53;471766;115;386097;-80
2021/01/30 03:13:31;;;;;;;;;41.40;32.70;;;;;3.30;72.11;99361.89;471479;115;386867;-81
2021/01/30 03:14:37;;;;;;;;;37.60;33.90;;;;;3.31;71.81;99360.96;471557;115;386439;-80
2021/01/30 03:15:43;;;;;;;;;34.50;30.80;;;;;3.31;71.81;99360.96;471526;115;383232;-80
2021/01/30 03:16:47;;;;;;;;;38.30;31.50;;;;;3.31;71.93;99364.44;471549;115;386627;-80
2021/01/30 03:17:51;;;;;;;;;36.40;31.90;;;;;3.31;71.93;99364.44;472027;115;390484;-79
2021/01/30 03:18:56;;;;;;;;;39.50;31.50;;;;;3.27;72.11;99365.57;472037;115;386353;-79
2021/01/30 03:20:00;;;;;;;;;42.90;32.60;;;;;3.27;72.11;99365.57;471469;115;385730;-78
2021/01/30 03:21:05;;;;;;;;;39.30;33.10;;;;;3.22;71.97;99361.56;471787;115;385502;-81
2021/01/30 03:22:11;;;;;;;;;36.00;30.30;;;;;3.17;72.26;99357.45;471797;115;384545;-79
2021/01/30 03:23:16;;;;;;;;;34.40;28.60;;;;;3.09;72.65;99365.00;471546;115;385160;-79
2021/01/30 03:24:20;;;;;;;;;33.60;29.80;;;;;3.09;72.65;99365.00;471772;115;390723;-81
2021/01/30 03:25:25;;;;;;;;;38.30;33.00;;;;;3.07;72.92;99356.35;472049;115;385900;-81
2021/01/30 03:26:31;;;;;;;;;33.60;27.70;;;;;3.08;73.38;99357.20;471474;115;392597;-80
2021/01/30 03:27:35;;;;;;;;;31.00;28.00;;;;;3.11;73.16;99357.00;471069;115;384160;-79
2021/01/30 03:28:39;;;;;;;;;35.70;31.30;;;;;3.10;73.10;99361.41;471226;116;385485;-77
2021/01/30 03:29:43;;;;;;;;;38.30;30.90;;;;;3.06;73.06;99356.47;470746;116;389099;-78
2021/01/30 03:30:48;;;;;;;;;32.91;31.36;;;;;3.03;73.40;99356.67;471019;115;383047;-78
2021/01/30 03:31:52;;;;;;;;;35.60;29.00;;;;;3.02;73.46;99358.45;464821;117;383910;-78
2021/01/30 03:32:56;;;;;;;;;36.40;32.00;;;;;3.04;73.96;99356.55;465070;117;385649;-76
2021/01/30 03:33:59;;;;;;;;;27.20;24.40;;;;;3.07;73.60;99353.72;471307;116;383419;-77
2021/01/30 03:35:05;;;;;;;;;38.00;31.70;;;;;3.08;73.27;99363.30;471195;116;385828;-78
2021/01/30 03:36:10;;;;;;;;;38.10;31.40;;;;;3.12;73.32;99364.80;470727;116;385830;-79
2021/01/30 03:37:14;;;;;;;;;36.30;32.30;;;;;3.12;73.32;99364.80;470973;116;385813;-77
2021/01/30 03:38:18;;;;;;;;;35.60;29.00;;;;;3.14;73.20;99370.78;471215;116;384369;-77
2021/01/30 03:39:22;;;;;;;;;29.40;27.70;;;;;3.17;73.04;99365.33;471193;116;384427;-75
2021/01/30 03:40:26;;;;;;;;;37.80;27.00;;;;;3.19;72.55;99365.24;470858;116;393302;-77
2021/01/30 03:41:30;;;;;;;;;37.40;30.70;;;;;3.20;72.60;99370.38;471129;116;385750;-77
2021/01/30 03:42:34;;;;;;;;;35.30;30.00;;;;;3.22;72.46;99365.04;470878;116;384260;-77
2021/01/30 03:43:38;;;;;;;;;32.10;26.70;;;;;3.20;72.39;99365.12;471137;116;384778;-77
2021/01/30 03:44:42;;;;;;;;;29.30;27.10;;;;;3.20;72.29;99364.28;471199;116;383912;-78
2021/01/30 03:45:46;;;;;;;;;36.80;30.50;;;;;3.22;72.45;99366.82;470683;116;386086;-79
2021/01/30 03:46:50;;;;;;;;;35.90;31.40;;;;;3.23;72.06;99366.70;471096;116;386095;-80
2021/01/30 03:47:54;;;;;;;;;33.50;27.30;;;;;3.23;72.06;99366.70;471190;116;383453;-78
2021/01/30 03:48:58;;;;;;;;;34.20;28.10;;;;;3.23;72.47;99371.11;471179;116;383718;-77
2021/01/30 03:50:02;;;;;;;;;31.40;30.40;;;;;3.24;72.27;99367.55;471090;116;390815;-78
2021/01/30 03:51:06;;;;;;;;;30.90;27.90;;;;;3.24;72.24;99370.18;471175;116;384128;-78
2021/01/30 03:52:10;;;;;;;;;34.90;31.90;;;;;3.24;72.24;99370.18;470467;116;386260;-77
2021/01/30 03:53:13;;;;;;;;;37.20;30.60;;;;;3.25;72.23;99370.09;471159;116;384078;-78
2021/01/30 03:54:17;;;;;;;;;30.50;26.00;;;;;3.26;71.79;99371.76;471140;116;384500;-79
2021/01/30 03:55:22;;;;;;;;;28.00;26.10;;;;;3.27;72.23;99367.35;470843;116;389108;-78
2021/01/30 03:56:26;;;;;;;;;37.30;32.00;;;;;3.31;71.67;99367.06;470851;116;385474;-77
2021/01/30 03:57:30;;;;;;;;;35.90;30.30;;;;;3.31;71.81;99368.84;471136;116;384487;-77
2021/01/30 03:58:34;;;;;;;;;33.70;27.40;;;;;3.32;71.65;99365.28;471230;116;383521;-78
2021/01/30 03:59:38;;;;;;;;;37.70;32.70;;;;;3.32;71.65;99365.28;471099;116;386468;-77
2021/01/30 04:00:43;;;;;;;;;32.50;30.40;;;;;3.27;71.81;99368.20;470635;116;385313;-77
2021/01/30 04:01:47;;;;;;;;;45.40;38.40;;;;;3.27;71.81;99368.20;471188;116;385015;-78
2021/01/30 04:02:51;;;;;;;;;38.90;36.60;;;;;3.29;71.80;99365.48;471076;116;391478;-78
2021/01/30 04:03:55;;;;;;;;;40.30;34.30;;;;;3.30;71.89;99372.41;471092;116;385940;-78
2021/01/30 04:04:59;;;;;;;;;33.00;29.70;;;;;3.30;71.89;99372.41;471167;116;383981;-79
2021/01/30 04:06:03;;;;;;;;;31.50;25.30;;;;;3.25;71.84;99366.63;471118;116;384442;-79
2021/01/30 04:07:08;;;;;;;;;20.50;15.00;;;;;3.21;71.73;99365.97;471259;116;380454;-78
2021/01/30 04:08:12;;;;;;;;;33.90;29.30;;;;;3.18;71.61;99369.65;470441;116;384937;-81
2021/01/30 04:09:16;;;;;;;;;31.30;29.60;;;;;3.15;72.26;99361.97;471159;116;383261;-80
2021/01/30 04:10:21;;;;;;;;;39.20;32.80;;;;;3.18;71.82;99364.39;470878;116;385041;-80
2021/01/30 04:11:27;;;;;;;;;31.00;22.40;;;;;3.21;72.06;99368.60;470436;116;384538;-81
2021/01/30 04:12:30;;;;;;;;;33.60;28.60;;;;;3.23;71.68;99369.33;470923;116;389475;-80
2021/01/30 04:13:34;;;;;;;;;38.30;31.30;;;;;3.26;71.76;99370.91;471103;116;382940;-79
2021/01/30 04:14:38;;;;;;;;;36.60;32.90;;;;;3.26;71.41;99370.91;471131;116;386513;-79
2021/01/30 04:15:44;;;;;;;;;35.60;32.90;;;;;3.26;71.41;99370.91;471281;116;385688;-82
2021/01/30 04:16:48;;;;;;;;;34.30;29.60;;;;;3.26;71.57;99370.91;470713;115;384108;-81
2021/01/30 04:17:52;;;;;;;;;38.00;31.00;;;;;3.22;71.16;99370.30;471267;116;385220;-81
2021/01/30 04:18:56;;;;;;;;;28.50;25.20;;;;;3.18;71.42;99374.05;471310;116;384539;-81
2021/01/30 04:19:59;;;;;;;;;33.50;28.90;;;;;3.19;71.42;99381.82;471166;116;391044;-84
2021/01/30 04:21:04;;;;;;;;;33.40;28.90;;;;;3.19;71.42;99381.82;464779;117;384007;-83
2021/01/30 04:22:07;;;;;;;;;30.10;28.80;;;;;3.05;71.75;99392.39;464842;117;384623;-83
2021/01/30 04:23:11;;;;;;;;;30.40;25.60;;;;;2.96;72.36;99398.23;471186;116;383643;-81
2021/01/30 04:24:15;;;;;;;;;44.20;34.40;;;;;2.90;73.06;99401.25;471095;116;387549;-79
2021/01/30 04:25:20;;;;;;;;;42.30;34.80;;;;;2.90;73.06;99401.25;471154;116;383386;-78
2021/01/30 04:26:25;;;;;;;;;46.20;39.90;;;;;2.89;74.83;99398.71;470892;116;384985;-78
2021/01/30 04:27:29;;;;;;;;;49.90;40.50;;;;;2.90;74.91;99396.00;470762;116;386148;-78
2021/01/30 04:28:33;;;;;;;;;40.50;36.30;;;;;2.90;74.91;99396.00;469203;116;385145;-78
2021/01/30 04:29:37;;;;;;;;;45.10;39.10;;;;;2.96;74.03;99395.61;469188;116;385997;-79
2021/01/30 04:30:41;;;;;;;;;42.50;37.50;;;;;2.99;73.92;99400.67;469194;116;386794;-79
2021/01/30 04:31:44;;;;;;;;;49.80;35.80;;;;;2.99;73.92;99400.67;468771;116;392473;-78
2021/01/30 04:32:48;;;;;;;;;34.50;33.10;;;;;3.04;74.20;99402.98;469301;116;383807;-79
2021/01/30 04:33:52;;;;;;;;;36.90;35.10;;;;;3.04;73.82;99398.58;469187;116;385053;-79
2021/01/30 04:34:56;;;;;;;;;44.30;39.40;;;;;3.03;73.80;99398.69;468746;116;386706;-79
2021/01/30 04:36:00;;;;;;;;;43.90;33.90;;;;;3.03;73.80;99398.69;469258;116;384691;-81
2021/01/30 04:37:04;;;;;;;;;46.30;34.60;;;;;3.06;73.64;99394.05;469193;116;385939;-81
2021/01/30 04:38:08;;;;;;;;;44.50;38.20;;;;;3.06;73.64;99394.05;469277;116;385225;-81
2021/01/30 04:39:12;;;;;;;;;43.90;36.90;;;;;3.07;73.35;99389.65;468762;116;385568;-80
2021/01/30 04:40:21;;;;;;;;;41.20;33.00;;;;;3.05;72.92;99392.39;469178;116;385817;-78
2021/01/30 04:41:31;;;;;;;;;43.30;36.70;;;;;3.05;72.92;99392.39;460079;118;385835;-78
2021/01/30 04:42:38;;;;;;;;;37.20;30.30;;;;;3.06;72.80;99391.43;463136;116;391102;-78
2021/01/30 04:43:44;;;;;;;;;32.10;30.40;;;;;3.05;73.15;99395.02;470199;116;384949;-77
2021/01/30 04:44:51;;;;;;;;;39.30;33.30;;;;;3.08;73.58;99392.20;470257;116;386236;-79
2021/01/30 04:46:04;;;;;;;;;40.10;33.50;;;;;3.07;73.85;99387.88;470412;116;385388;-78
2021/01/30 04:47:21;;;;;;;;;44.10;36.60;;;;;3.07;73.85;99387.88;470498;116;386244;-77
2021/01/30 04:48:31;;;;;;;;;46.70;34.80;;;;;3.10;73.48;99392.08;470208;116;385332;-79
2021/01/30 04:49:39;;;;;;;;;40.10;34.10;;;;;3.10;73.19;99392.08;470190;116;385825;-79
2021/01/30 04:50:46;;;;;;;;;38.00;32.30;;;;;3.11;73.18;99391.15;470152;116;385371;-78
2021/01/30 04:51:55;;;;;;;;;36.30;34.70;;;;;3.11;73.18;99391.15;470238;116;385472;-78
2021/01/30 04:53:04;;;;;;;;;39.90;34.60;;;;;3.12;72.50;99385.81;469013;116;385748;-78
2021/01/30 04:54:15;;;;;;;;;53.00;39.30;;;;;3.12;72.15;99388.44;468691;116;388002;-82
2021/01/30 04:55:26;;;;;;;;;37.80;33.70;;;;;3.11;72.44;99385.89;468682;116;385896;-80
2021/01/30 04:56:36;;;;;;;;;34.10;31.60;;;;;3.10;72.68;99379.80;468986;116;384503;-80
2021/01/30 04:57:50;;;;;;;;;39.80;31.90;;;;;3.10;72.68;99379.80;468916;116;385644;-80
2021/01/30 04:58:57;;;;;;;;;46.20;38.30;;;;;3.07;72.65;99377.36;468688;116;387139;-80
2021/01/30 05:00:27;;;;;;;;;45.60;37.20;;;;;3.05;72.81;99363.50;468683;116;387300;-78
2021/01/30 05:01:34;;;;;;;;;34.20;28.40;;;;;3.07;72.37;99372.11;461568;116;391385;-81
2021/01/30 05:02:42;;;;;;;;;37.60;32.60;;;;;3.07;72.37;99372.11;468656;116;385469;-81
2021/01/30 05:04:07;;;;;;;;;25.60;24.60;;;;;3.05;72.71;99368.75;468769;116;383229;-79
2021/01/30 05:05:12;;;;;;;;;44.30;32.70;;;;;3.08;72.24;99368.55;468992;116;384525;-82
2021/01/30 05:06:20;;;;;;;;;35.10;30.90;;;;;3.07;72.49;99369.48;468715;116;383922;-81